Pagina principale
METAR-TAF:

METAR-TAF

Aeroporti :

Aeroporto di Pescara

Pescara, Italia

latitudine: 42-26N, longitudine: 014-12E, altezza: 10 m

Osservazione

Il bollettino è stato emesso 31 minuti fa, alle 01:20 UTC
Vento 16 kt da sud-ovest, variando fra sud e ovest/sud-ovest
Temperature 24°C
Umidità 29%
Pressione 1006 hPa
Visibilità 10 km o più

METAR: LIBP 160120Z AUTO 22016KT 190V250 9999 NCD 24/05 Q1006

Ora: 03:51 (01:51 UTC)

Previsione

Il bollettino è stato emesso 2 ore e 51 minuti fa, alle 23:00 UTC
Previsione valida dal 16 alle 00 UTC al 16 alle 24 UTC
Vento 15 kt da sud-ovest
Visibilità 10 km o più
Nubi sparse ad un'altezza di 4000 ft
Evoluzione graduale
dal 16 alle 06 UTC al 16 alle 08 UTC
Vento 23 kt da sud-ovest con raffiche fino a 37 kt

TAF: LIBP 152300Z 1600/1624 23015KT 9999 SCT040 BECMG 1606/1608 23023G37KT

Osservazioni e previsioni meteorologiche di più di 4000 aeroporti (messaggi METAR e TAF).

Le stazioni disponibili sono rappresentate dai dischi gialli e rossi sulla carta.

Puntare il mouse per vedere il nome della stazione.

Clicca sopra per visualizzare le osservazioni e previsioni meteorologiche.

Per cambiare la mappa : fare clic sui pulsanti verdi con una croce nera per ingrandire, il pulsante verde con un trattino per diminuire, o sulla freccia verde per le mappe adiacenti.


METAR-TAF: